Open Full Screen Window  High Contrast Mode
Wind Gusting 00 knots
05
May 29, 2017 9:06 AM EDT
Weather Information
Wind Direction
  240 °
Wind Speed
  05 kt (6 mph)
Wind Gust
  00 kt (0 mph)
Altimeter
29.93 in
Visibility
10 SM
Temperature
19° C
66° F
Dewpoint
16° C
61° F
Humidity
83%
1hr Rain Fall
00.00 in.
24hr Rain Fall
00.00 in.
Sky Condition
Clear
VFR

METAR KI19 291306Z AUTO 24005KT 10SM CLR 19/16 A2993 RMK AO2 T01940157

*Background is not an actual portrayal of the airport.